METAR AND TAF INFORMATION
METAR FOR LFBY
ADDS - METARS form results

(0457 UTC 03 February 2023)
Data provider http://aviationweather.gov/metar/data/
 
METAR text: LFBY 030430Z AUTO VRB02KT 6000 // ////// M00/M01 Q1035
Conditions at: LFBY (DAX/SEYRESSE , FR) observed 0430 UTC 03 February 2023
Temperature: 0.0°C (32°F)
Dewpoint: -1.0°C (30°F) [RH = 93%]
Pressure (altimeter): 30.56 inches Hg (1035.0 mb)
Winds: variable direction winds at 2 MPH (2 knots; 1.0 m/s)
Visibility: 4 miles ( 6 km)
Ceiling: unknown
Clouds: missing
Weather: no significant weather observed at this time

METAR text: LFBY 030400Z AUTO 06004KT 030V090 6000 // ////// 00/M01 Q1035
Conditions at: LFBY (DAX/SEYRESSE , FR) observed 0400 UTC 03 February 2023
Temperature: 0.0°C (32°F)
Dewpoint: -1.0°C (30°F) [RH = 93%]
Pressure (altimeter): 30.56 inches Hg (1035.0 mb)
Winds: from the ENE (60 degrees) at 5 MPH (4 knots; 2.1 m/s)
Visibility: 4 miles ( 6 km)
Ceiling: unknown
Clouds: missing
Weather: no significant weather observed at this time

 AIRPORT MAP

 RUNWAY INFORMATION
Runway 08 Runway length 2625 ft Runway width 0 ft
Runway elevation 101 ft Runway displaced threshold 0 ft Runway heading 0
Runway 26 Runway length 2625 ft Runway width 0 ft
Runway elevation 106 ft Runway displaced threshold 0 ft Runway heading 0

 AIRPORT FREQUENCIES

 AIRPORT NEAR NAVIGATION AIDS



Powered by Virtual Airlines Manager [v2.6.2]